^^
Station Historical Data
Daily Summary for August 28, 2017 Units:  Both    English   Metric
« Previous Day
Next Day »
Daily Weekly Monthly Yearly Custom
  High: Low: Average:
Temperature: TemperatureF °F /  -17.8 °C 53.4 °F /  11.9 °C 67 °F /  19.4 °C
Dew Point: DewpointF °F /  -17.8 °C 14.9 °F /  -9.5 °C 24.5 °F /  -4.2 °C
Humidity: Humidity% 11% 21%
Wind Speed: WindSpeedMPHmph /  0km/h - 2mph /  3.2km/h
Wind Gust: WindSpeedGustMPHmph /  0km/h - -
Wind- - SW
Pressure: PressureIn in /  0 hPa 29.83 in /  1010 hPa -
Precipitation: 0.00 in /  0 mm    
Historical Graphs
 
 
Tabular Data for August 28, 2017
Time Temperature Dew Point Pressure Wind Wind Speed Wind Gust Humidity Rainfall Rate (Hourly) solar Conditions
TemperatureF °F /  -17.8 °C DewpointF °F /  -17.8 °C PressureInin /  0hPa Calm     Humidity% HourlyPrecipInin /  0mm SolarRadiationWatts/m^2 W/m2 Conditions
00:02 57.2 °F /  14 °C 15.3 °F /  -9.3 °C 29.95in /  1014.1hPa Calm   4.0mph /  6.4km/h 19% 0.00in /  0mm 0.0 W/m2
00:08 57.4 °F /  14.1 °C 15.4 °F /  -9.2 °C 29.95in /  1014.1hPa Calm   2.0mph /  3.2km/h 19% 0.00in /  0mm 0.0 W/m2
00:14 57.4 °F /  14.1 °C 15.4 °F /  -9.2 °C 29.94in /  1013.8hPa Calm   3.0mph /  4.8km/h 19% 0.00in /  0mm 0.0 W/m2
00:20 57.4 °F /  14.1 °C 15.4 °F /  -9.2 °C 29.95in /  1014.1hPa Calm   2.0mph /  3.2km/h 19% 0.00in /  0mm 0.0 W/m2
00:27 57.4 °F /  14.1 °C 15.4 °F /  -9.2 °C 29.94in /  1013.8hPa Calm     19% 0.00in /  0mm 0.0 W/m2
00:33 57.0 °F /  13.9 °C 15.1 °F /  -9.4 °C 29.94in /  1013.8hPa Calm   4.0mph /  6.4km/h 19% 0.00in /  0mm 0.0 W/m2
00:39 57.0 °F /  13.9 °C 15.1 °F /  -9.4 °C 29.94in /  1013.8hPa NE 2.0mph /  3.2km/h 3.0mph /  4.8km/h 19% 0.00in /  0mm 0.0 W/m2
00:45 57.0 °F /  13.9 °C 15.1 °F /  -9.4 °C 29.94in /  1013.8hPa SE 2.0mph /  3.2km/h 3.0mph /  4.8km/h 19% 0.00in /  0mm 0.0 W/m2
00:51 57.0 °F /  13.9 °C 15.1 °F /  -9.4 °C 29.94in /  1013.8hPa Calm   4.0mph /  6.4km/h 19% 0.00in /  0mm 0.0 W/m2
00:57 56.8 °F /  13.8 °C 15.1 °F /  -9.4 °C 29.93in /  1013.4hPa ESE 0.9mph /  1.4km/h 4.0mph /  6.4km/h 19% 0.00in /  0mm 0.0 W/m2
01:03 56.8 °F /  13.8 °C 15.1 °F /  -9.4 °C 29.93in /  1013.4hPa SE 0.9mph /  1.4km/h 2.0mph /  3.2km/h 19% 0.00in /  0mm 0.0 W/m2
01:09 56.8 °F /  13.8 °C 15.1 °F /  -9.4 °C 29.93in /  1013.4hPa Calm     19% 0.00in /  0mm 0.0 W/m2
01:15 56.7 °F /  13.7 °C 14.9 °F /  -9.5 °C 29.93in /  1013.4hPa Calm   3.0mph /  4.8km/h 19% 0.00in /  0mm 0.0 W/m2
01:21 56.8 °F /  13.8 °C 16.2 °F /  -8.8 °C 29.93in /  1013.4hPa Calm   1.0mph /  1.6km/h 20% 0.00in /  0mm 0.0 W/m2
01:27 56.5 °F /  13.6 °C 15.8 °F /  -9 °C 29.92in /  1013.1hPa Calm     20% 0.00in /  0mm 0.0 W/m2
01:33 56.1 °F /  13.4 °C 15.6 °F /  -9.1 °C 29.92in /  1013.1hPa Calm   1.0mph /  1.6km/h 20% 0.00in /  0mm 0.0 W/m2
01:40 55.8 °F /  13.2 °C 15.3 °F /  -9.3 °C 29.92in /  1013.1hPa ENE 0.9mph /  1.4km/h 1.0mph /  1.6km/h 20% 0.00in /  0mm 0.0 W/m2
01:46 55.4 °F /  13 °C 16.2 °F /  -8.8 °C 29.92in /  1013.1hPa Calm   3.0mph /  4.8km/h 21% 0.00in /  0mm 0.0 W/m2
01:52 55.4 °F /  13 °C 14.9 °F /  -9.5 °C 29.92in /  1013.1hPa Calm     20% 0.00in /  0mm 0.0 W/m2
01:58 55.2 °F /  12.9 °C 16.0 °F /  -8.9 °C 29.92in /  1013.1hPa Calm     21% 0.00in /  0mm 0.0 W/m2
02:04 54.9 °F /  12.7 °C 15.6 °F /  -9.1 °C 29.92in /  1013.1hPa Calm     21% 0.00in /  0mm 0.0 W/m2
02:10 54.9 °F /  12.7 °C 16.7 °F /  -8.5 °C 29.92in /  1013.1hPa ESE 0.9mph /  1.4km/h 3.0mph /  4.8km/h 22% 0.00in /  0mm 0.0 W/m2
02:16 54.7 °F /  12.6 °C 15.4 °F /  -9.2 °C 29.92in /  1013.1hPa ESE 0.9mph /  1.4km/h 3.0mph /  4.8km/h 21% 0.00in /  0mm 0.0 W/m2
02:23 54.7 °F /  12.6 °C 16.5 °F /  -8.6 °C 29.92in /  1013.1hPa Calm   2.0mph /  3.2km/h 22% 0.00in /  0mm 0.0 W/m2
02:29 54.7 °F /  12.6 °C 16.5 °F /  -8.6 °C 29.92in /  1013.1hPa Calm   2.0mph /  3.2km/h 22% 0.00in /  0mm 0.0 W/m2
02:35 54.7 °F /  12.6 °C 16.5 °F /  -8.6 °C 29.92in /  1013.1hPa Calm     22% 0.00in /  0mm 0.0 W/m2
02:41 54.7 °F /  12.6 °C 16.5 °F /  -8.6 °C 29.92in /  1013.1hPa Calm   3.0mph /  4.8km/h 22% 0.00in /  0mm 0.0 W/m2
02:47 54.7 °F /  12.6 °C 16.5 °F /  -8.6 °C 29.92in /  1013.1hPa ENE 0.9mph /  1.4km/h 3.0mph /  4.8km/h 22% 0.00in /  0mm 0.0 W/m2
02:53 54.3 °F /  12.4 °C 16.3 °F /  -8.7 °C 29.92in /  1013.1hPa Calm   2.0mph /  3.2km/h 22% 0.00in /  0mm 0.0 W/m2
02:59 54.3 °F /  12.4 °C 17.2 °F /  -8.2 °C 29.92in /  1013.1hPa Calm   1.0mph /  1.6km/h 23% 0.00in /  0mm 0.0 W/m2
03:05 54.3 °F /  12.4 °C 17.2 °F /  -8.2 °C 29.92in /  1013.1hPa NNE 0.9mph /  1.4km/h 4.0mph /  6.4km/h 23% 0.00in /  0mm 0.0 W/m2
03:11 54.3 °F /  12.4 °C 17.2 °F /  -8.2 °C 29.92in /  1013.1hPa ENE 2.0mph /  3.2km/h 6.0mph /  9.7km/h 23% 0.00in /  0mm 0.0 W/m2
03:17 54.3 °F /  12.4 °C 17.2 °F /  -8.2 °C 29.92in /  1013.1hPa ENE 0.9mph /  1.4km/h 6.0mph /  9.7km/h 23% 0.00in /  0mm 0.0 W/m2
03:23 54.5 °F /  12.5 °C 17.4 °F /  -8.1 °C 29.91in /  1012.8hPa ENE 0.9mph /  1.4km/h 5.0mph /  8km/h 23% 0.00in /  0mm 0.0 W/m2
03:29 54.7 °F /  12.6 °C 17.6 °F /  -8 °C 29.92in /  1013.1hPa Calm   3.0mph /  4.8km/h 23% 0.00in /  0mm 0.0 W/m2
03:36 54.9 °F /  12.7 °C 17.8 °F /  -7.9 °C 29.92in /  1013.1hPa ENE 0.9mph /  1.4km/h 3.0mph /  4.8km/h 23% 0.00in /  0mm 0.0 W/m2
03:42 55.0 °F /  12.8 °C 18.0 °F /  -7.8 °C 29.92in /  1013.1hPa ENE 0.9mph /  1.4km/h 4.0mph /  6.4km/h 23% 0.00in /  0mm 0.0 W/m2
03:48 55.2 °F /  12.9 °C 18.1 °F /  -7.7 °C 29.92in /  1013.1hPa Calm   4.0mph /  6.4km/h 23% 0.00in /  0mm 0.0 W/m2
03:54 55.2 °F /  12.9 °C 18.1 °F /  -7.7 °C 29.92in /  1013.1hPa Calm   3.0mph /  4.8km/h 23% 0.00in /  0mm 0.0 W/m2
04:00 55.2 °F /  12.9 °C 18.1 °F /  -7.7 °C 29.92in /  1013.1hPa Calm   2.0mph /  3.2km/h 23% 0.00in /  0mm 0.0 W/m2
04:06 55.0 °F /  12.8 °C 18.0 °F /  -7.8 °C 29.92in /  1013.1hPa ENE 2.0mph /  3.2km/h 2.0mph /  3.2km/h 23% 0.00in /  0mm 0.0 W/m2
04:12 55.2 °F /  12.9 °C 19.0 °F /  -7.2 °C 29.92in /  1013.1hPa Calm   4.0mph /  6.4km/h 24% 0.00in /  0mm 0.0 W/m2
04:18 55.2 °F /  12.9 °C 19.0 °F /  -7.2 °C 29.92in /  1013.1hPa Calm   3.0mph /  4.8km/h 24% 0.00in /  0mm 0.0 W/m2
04:25 55.6 °F /  13.1 °C 19.4 °F /  -7 °C 29.92in /  1013.1hPa NE 2.0mph /  3.2km/h 3.0mph /  4.8km/h 24% 0.00in /  0mm 0.0 W/m2
04:31 55.8 °F /  13.2 °C 20.5 °F /  -6.4 °C 29.93in /  1013.4hPa NE 0.9mph /  1.4km/h 2.0mph /  3.2km/h 25% 0.00in /  0mm 0.0 W/m2
04:37 55.9 °F /  13.3 °C 20.7 °F /  -6.3 °C 29.93in /  1013.4hPa Calm   2.0mph /  3.2km/h 25% 0.00in /  0mm 0.0 W/m2
04:43 56.1 °F /  13.4 °C 20.8 °F /  -6.2 °C 29.92in /  1013.1hPa East 0.9mph /  1.4km/h 2.0mph /  3.2km/h 25% 0.00in /  0mm 0.0 W/m2
04:49 56.3 °F /  13.5 °C 20.8 °F /  -6.2 °C 29.92in /  1013.1hPa ENE 0.9mph /  1.4km/h 2.0mph /  3.2km/h 25% 0.00in /  0mm 0.0 W/m2
04:55 56.5 °F /  13.6 °C 22.8 °F /  -5.1 °C 29.92in /  1013.1hPa ENE 2.0mph /  3.2km/h 3.0mph /  4.8km/h 27% 0.00in /  0mm 0.0 W/m2
05:01 56.5 °F /  13.6 °C 22.8 °F /  -5.1 °C 29.93in /  1013.4hPa ENE 0.9mph /  1.4km/h 2.0mph /  3.2km/h 27% 0.00in /  0mm 0.0 W/m2
05:07 56.5 °F /  13.6 °C 23.7 °F /  -4.6 °C 29.92in /  1013.1hPa Calm   3.0mph /  4.8km/h 28% 0.00in /  0mm 0.0 W/m2
05:13 56.5 °F /  13.6 °C 23.7 °F /  -4.6 °C 29.92in /  1013.1hPa Calm   3.0mph /  4.8km/h 28% 0.00in /  0mm 0.0 W/m2
05:19 56.5 °F /  13.6 °C 24.6 °F /  -4.1 °C 29.92in /  1013.1hPa ENE 0.9mph /  1.4km/h 3.0mph /  4.8km/h 29% 0.00in /  0mm 0.0 W/m2
05:25 56.3 °F /  13.5 °C 24.4 °F /  -4.2 °C 29.92in /  1013.1hPa Calm   1.0mph /  1.6km/h 29% 0.00in /  0mm 0.0 W/m2
05:31 56.1 °F /  13.4 °C 25.2 °F /  -3.8 °C 29.93in /  1013.4hPa Calm   2.0mph /  3.2km/h 30% 0.00in /  0mm 0.0 W/m2
05:38 55.9 °F /  13.3 °C 25.7 °F /  -3.5 °C 29.93in /  1013.4hPa Calm     31% 0.00in /  0mm 0.0 W/m2
05:44 55.8 °F /  13.2 °C 26.4 °F /  -3.1 °C 29.93in /  1013.4hPa ENE 0.9mph /  1.4km/h 1.0mph /  1.6km/h 32% 0.00in /  0mm 0.0 W/m2
05:50 55.4 °F /  13 °C 26.8 °F /  -2.9 °C 29.93in /  1013.4hPa Calm     33% 0.00in /  0mm 0.0 W/m2
05:57 55.0 °F /  12.8 °C 26.4 °F /  -3.1 °C 29.93in /  1013.4hPa Calm     33% 0.00in /  0mm 0.0 W/m2
06:02 54.9 °F /  12.7 °C 27.0 °F /  -2.8 °C 29.93in /  1013.4hPa Calm     34% 0.00in /  0mm 0.0 W/m2
06:08 54.7 °F /  12.6 °C 26.8 °F /  -2.9 °C 29.93in /  1013.4hPa Calm     34% 0.00in /  0mm 0.0 W/m2
06:14 54.3 °F /  12.4 °C 27.3 °F /  -2.6 °C 29.93in /  1013.4hPa Calm     35% 0.00in /  0mm 7.0 W/m2
06:21 54.1 °F /  12.3 °C 27.1 °F /  -2.7 °C 29.93in /  1013.4hPa Calm     35% 0.00in /  0mm 12.0 W/m2
06:27 54.0 °F /  12.2 °C 27.7 °F /  -2.4 °C 29.93in /  1013.4hPa Calm     36% 0.00in /  0mm 16.0 W/m2
06:33 53.8 °F /  12.1 °C 28.8 °F /  -1.8 °C 29.93in /  1013.4hPa Calm     38% 0.00in /  0mm 21.0 W/m2
06:39 53.6 °F /  12 °C 28.0 °F /  -2.2 °C 29.93in /  1013.4hPa Calm     37% 0.00in /  0mm 26.0 W/m2
06:45 53.4 °F /  11.9 °C 28.4 °F /  -2 °C 29.93in /  1013.4hPa ENE 0.9mph /  1.4km/h 1.0mph /  1.6km/h 38% 0.00in /  0mm 30.0 W/m2
06:51 53.6 °F /  12 °C 28.0 °F /  -2.2 °C 29.93in /  1013.4hPa Calm     37% 0.00in /  0mm 33.0 W/m2
06:57 53.8 °F /  12.1 °C 28.0 °F /  -2.2 °C 29.94in /  1013.8hPa Calm   1.0mph /  1.6km/h 37% 0.00in /  0mm 37.0 W/m2
07:03 54.0 °F /  12.2 °C 29.5 °F /  -1.4 °C 29.94in /  1013.8hPa Calm     39% 0.00in /  0mm 40.0 W/m2
07:10 54.1 °F /  12.3 °C 29.7 °F /  -1.3 °C 29.94in /  1013.8hPa Calm     39% 0.00in /  0mm 44.0 W/m2
07:16 54.3 °F /  12.4 °C 31.1 °F /  -0.5 °C 29.94in /  1013.8hPa Calm     41% 0.00in /  0mm 47.0 W/m2
07:22 54.9 °F /  12.7 °C 30.4 °F /  -0.9 °C 29.94in /  1013.8hPa Calm     39% 0.00in /  0mm 51.0 W/m2
07:28 55.6 °F /  13.1 °C 31.1 °F /  -0.5 °C 29.94in /  1013.8hPa Calm   1.0mph /  1.6km/h 39% 0.00in /  0mm 54.0 W/m2
07:34 56.3 °F /  13.5 °C 30.4 °F /  -0.9 °C 29.94in /  1013.8hPa Calm   2.0mph /  3.2km/h 37% 0.00in /  0mm 56.0 W/m2
07:40 57.4 °F /  14.1 °C 31.3 °F /  -0.4 °C 29.94in /  1013.8hPa Calm   1.0mph /  1.6km/h 37% 0.00in /  0mm 60.0 W/m2
07:47 57.9 °F /  14.4 °C 28.9 °F /  -1.7 °C 29.94in /  1013.8hPa Calm   1.0mph /  1.6km/h 33% 0.00in /  0mm 63.0 W/m2
07:53 58.6 °F /  14.8 °C 30.4 °F /  -0.9 °C 29.94in /  1013.8hPa Calm   1.0mph /  1.6km/h 34% 0.00in /  0mm 67.0 W/m2
07:59 59.7 °F /  15.4 °C 29.8 °F /  -1.2 °C 29.94in /  1013.8hPa Calm   3.0mph /  4.8km/h 32% 0.00in /  0mm 70.0 W/m2
08:05 61.3 °F /  16.3 °C 29.7 °F /  -1.3 °C 29.94in /  1013.8hPa Calm   1.0mph /  1.6km/h 30% 0.00in /  0mm 72.0 W/m2
08:11 62.8 °F /  17.1 °C 29.1 °F /  -1.6 °C 29.95in /  1014.1hPa NNW 0.9mph /  1.4km/h 3.0mph /  4.8km/h 28% 0.00in /  0mm 76.0 W/m2
08:17 64.2 °F /  17.9 °C 28.6 °F /  -1.9 °C 29.95in /  1014.1hPa Calm   6.0mph /  9.7km/h 26% 0.00in /  0mm 79.0 W/m2
08:23 65.7 °F /  18.7 °C 28.9 °F /  -1.7 °C 29.95in /  1014.1hPa NNW 2.9mph /  4.7km/h 8.0mph /  12.9km/h 25% 0.00in /  0mm 83.0 W/m2
08:29 66.7 °F /  19.3 °C 28.8 °F /  -1.8 °C 29.95in /  1014.1hPa Calm   10.0mph /  16.1km/h 24% 0.00in /  0mm 86.0 W/m2
08:36 67.6 °F /  19.8 °C 28.6 °F /  -1.9 °C 29.95in /  1014.1hPa WNW 0.9mph /  1.4km/h 8.0mph /  12.9km/h 23% 0.00in /  0mm 411.0 W/m2
08:42 69.1 °F /  20.6 °C 29.7 °F /  -1.3 °C 29.95in /  1014.1hPa NNW 6.0mph /  9.7km/h 13.0mph /  20.9km/h 23% 0.00in /  0mm 443.0 W/m2
08:48 70.2 °F /  21.2 °C 29.5 °F /  -1.4 °C 29.96in /  1014.4hPa NNE 0.9mph /  1.4km/h 6.0mph /  9.7km/h 22% 0.00in /  0mm 459.0 W/m2
08:54 71.1 °F /  21.7 °C 29.1 °F /  -1.6 °C 29.95in /  1014.1hPa West 0.9mph /  1.4km/h 8.0mph /  12.9km/h 21% 0.00in /  0mm 476.0 W/m2
09:00 72.0 °F /  22.2 °C 29.8 °F /  -1.2 °C 29.95in /  1014.1hPa NNE 4.0mph /  6.4km/h 5.0mph /  8km/h 21% 0.00in /  0mm 494.0 W/m2
09:06 72.7 °F /  22.6 °C 29.3 °F /  -1.5 °C 29.96in /  1014.4hPa NNE 4.0mph /  6.4km/h 8.0mph /  12.9km/h 20% 0.00in /  0mm 515.0 W/m2
09:13 73.6 °F /  23.1 °C 28.8 °F /  -1.8 °C 29.96in /  1014.4hPa North 2.9mph /  4.7km/h 8.0mph /  12.9km/h 19% 0.00in /  0mm 534.0 W/m2
09:19 74.5 °F /  23.6 °C 29.5 °F /  -1.4 °C 29.96in /  1014.4hPa North 6.0mph /  9.7km/h 8.0mph /  12.9km/h 19% 0.00in /  0mm 548.0 W/m2
09:25 74.8 °F /  23.8 °C 29.8 °F /  -1.2 °C 29.96in /  1014.4hPa NW 10.1mph /  16.3km/h 13.0mph /  20.9km/h 19% 0.00in /  0mm 557.0 W/m2
09:31 75.0 °F /  23.9 °C 28.6 °F /  -1.9 °C 29.95in /  1014.1hPa NW 8.1mph /  13km/h 10.0mph /  16.1km/h 18% 0.00in /  0mm 570.0 W/m2
09:37 75.4 °F /  24.1 °C 28.9 °F /  -1.7 °C 29.95in /  1014.1hPa North 2.9mph /  4.7km/h 12.0mph /  19.3km/h 18% 0.00in /  0mm 585.0 W/m2
09:43 75.4 °F /  24.1 °C 28.9 °F /  -1.7 °C 29.95in /  1014.1hPa North 6.9mph /  11.1km/h 13.0mph /  20.9km/h 18% 0.00in /  0mm 594.0 W/m2
09:49 75.7 °F /  24.3 °C 29.3 °F /  -1.5 °C 29.95in /  1014.1hPa North 6.0mph /  9.7km/h 9.0mph /  14.5km/h 18% 0.00in /  0mm 613.0 W/m2
09:55 75.9 °F /  24.4 °C 29.3 °F /  -1.5 °C 29.95in /  1014.1hPa NNW 8.9mph /  14.3km/h 13.0mph /  20.9km/h 18% 0.00in /  0mm 626.0 W/m2
10:01 76.3 °F /  24.6 °C 29.7 °F /  -1.3 °C 29.95in /  1014.1hPa NNW 11.0mph /  17.7km/h 11.0mph /  17.7km/h 18% 0.00in /  0mm 635.0 W/m2
10:07 76.5 °F /  24.7 °C 29.8 °F /  -1.2 °C 29.94in /  1013.8hPa NNW 6.9mph /  11.1km/h 13.0mph /  20.9km/h 18% 0.00in /  0mm 649.0 W/m2
10:16 76.8 °F /  24.9 °C 30.0 °F /  -1.1 °C 29.95in /  1014.1hPa NW 10.1mph /  16.3km/h 15.0mph /  24.1km/h 18% 0.00in /  0mm 671.0 W/m2
10:22 77.0 °F /  25 °C 30.2 °F /  -1 °C 29.94in /  1013.8hPa NNE 4.9mph /  7.9km/h 12.0mph /  19.3km/h 18% 0.00in /  0mm 675.0 W/m2
10:28 77.5 °F /  25.3 °C 29.3 °F /  -1.5 °C 29.94in /  1013.8hPa NNE 10.1mph /  16.3km/h 18.0mph /  29km/h 17% 0.00in /  0mm 680.0 W/m2
10:34 77.4 °F /  25.2 °C 30.6 °F /  -0.8 °C 29.94in /  1013.8hPa WNW 6.9mph /  11.1km/h 12.0mph /  19.3km/h 18% 0.00in /  0mm 687.0 W/m2
10:40 77.7 °F /  25.4 °C 30.9 °F /  -0.6 °C 29.93in /  1013.4hPa NNE 8.9mph /  14.3km/h 14.0mph /  22.5km/h 18% 0.00in /  0mm 698.0 W/m2
10:46 78.1 °F /  25.6 °C 29.7 °F /  -1.3 °C 29.93in /  1013.4hPa North 12.1mph /  19.5km/h 19.0mph /  30.6km/h 17% 0.00in /  0mm 703.0 W/m2
10:52 78.1 °F /  25.6 °C 29.7 °F /  -1.3 °C 29.93in /  1013.4hPa NNW 4.9mph /  7.9km/h 12.0mph /  19.3km/h 17% 0.00in /  0mm 701.0 W/m2
10:58 78.3 °F /  25.7 °C 31.3 °F /  -0.4 °C 29.93in /  1013.4hPa North 6.9mph /  11.1km/h 12.0mph /  19.3km/h 18% 0.00in /  0mm 717.0 W/m2
11:05 78.6 °F /  25.9 °C 30.2 °F /  -1 °C 29.93in /  1013.4hPa NE 6.0mph /  9.7km/h 14.0mph /  22.5km/h 17% 0.00in /  0mm 717.0 W/m2
11:11 78.4 °F /  25.8 °C 30.0 °F /  -1.1 °C 29.92in /  1013.1hPa NNE 6.0mph /  9.7km/h 16.0mph /  25.7km/h 17% 0.00in /  0mm 719.0 W/m2
11:17 78.8 °F /  26 °C 30.4 °F /  -0.9 °C 29.92in /  1013.1hPa NW 4.0mph /  6.4km/h 6.0mph /  9.7km/h 17% 0.00in /  0mm 731.0 W/m2
11:23 79.3 °F /  26.3 °C 30.7 °F /  -0.7 °C 29.92in /  1013.1hPa NW 6.0mph /  9.7km/h 14.0mph /  22.5km/h 17% 0.00in /  0mm 722.0 W/m2
11:29 79.7 °F /  26.5 °C 31.1 °F /  -0.5 °C 29.91in /  1012.8hPa NNW 6.9mph /  11.1km/h 12.0mph /  19.3km/h 17% 0.00in /  0mm 724.0 W/m2
11:35 80.1 °F /  26.7 °C 31.3 °F /  -0.4 °C 29.91in /  1012.8hPa NW 6.9mph /  11.1km/h 7.0mph /  11.3km/h 17% 0.00in /  0mm 719.0 W/m2
11:41 80.1 °F /  26.7 °C 31.3 °F /  -0.4 °C 29.91in /  1012.8hPa NNW 11.0mph /  17.7km/h 19.0mph /  30.6km/h 17% 0.00in /  0mm 663.0 W/m2
11:47 80.2 °F /  26.8 °C 31.5 °F /  -0.3 °C 29.91in /  1012.8hPa NNW 8.1mph /  13km/h 11.0mph /  17.7km/h 17% 0.00in /  0mm 729.0 W/m2
11:54 80.2 °F /  26.8 °C 31.5 °F /  -0.3 °C 29.91in /  1012.8hPa North 0.9mph /  1.4km/h 9.0mph /  14.5km/h 17% 0.00in /  0mm 714.0 W/m2
12:00 80.8 °F /  27.1 °C 30.4 °F /  -0.9 °C 29.90in /  1012.4hPa NNE 4.0mph /  6.4km/h 14.0mph /  22.5km/h 16% 0.00in /  0mm 721.0 W/m2
12:06 80.6 °F /  27 °C 30.2 °F /  -1 °C 29.91in /  1012.8hPa NNW 4.0mph /  6.4km/h 11.0mph /  17.7km/h 16% 0.00in /  0mm 722.0 W/m2
12:12 80.6 °F /  27 °C 30.2 °F /  -1 °C 29.90in /  1012.4hPa NW 4.9mph /  7.9km/h 11.0mph /  17.7km/h 16% 0.00in /  0mm 728.0 W/m2
12:18 81.1 °F /  27.3 °C 30.7 °F /  -0.7 °C 29.90in /  1012.4hPa NW 8.1mph /  13km/h 13.0mph /  20.9km/h 16% 0.00in /  0mm 722.0 W/m2
12:24 81.3 °F /  27.4 °C 30.9 °F /  -0.6 °C 29.89in /  1012.1hPa North 6.9mph /  11.1km/h 11.0mph /  17.7km/h 16% 0.00in /  0mm 717.0 W/m2
12:30 81.5 °F /  27.5 °C 29.5 °F /  -1.4 °C 29.89in /  1012.1hPa NW 6.0mph /  9.7km/h 15.0mph /  24.1km/h 15% 0.00in /  0mm 715.0 W/m2
12:37 81.7 °F /  27.6 °C 29.5 °F /  -1.4 °C 29.88in /  1011.7hPa NNW 4.0mph /  6.4km/h 9.0mph /  14.5km/h 15% 0.00in /  0mm 712.0 W/m2
12:43 81.9 °F /  27.7 °C 29.7 °F /  -1.3 °C 29.88in /  1011.7hPa North 2.0mph /  3.2km/h 10.0mph /  16.1km/h 15% 0.00in /  0mm 698.0 W/m2
12:49 81.9 °F /  27.7 °C 29.7 °F /  -1.3 °C 29.88in /  1011.7hPa NNW 4.9mph /  7.9km/h 11.0mph /  17.7km/h 15% 0.00in /  0mm 687.0 W/m2
12:55 82.0 °F /  27.8 °C 29.8 °F /  -1.2 °C 29.87in /  1011.4hPa NNW 13.0mph /  20.9km/h 16.0mph /  25.7km/h 15% 0.00in /  0mm 687.0 W/m2
13:01 82.2 °F /  27.9 °C 30.0 °F /  -1.1 °C 29.87in /  1011.4hPa NNW 2.9mph /  4.7km/h 8.0mph /  12.9km/h 15% 0.00in /  0mm 686.0 W/m2
13:07 82.2 °F /  27.9 °C 30.0 °F /  -1.1 °C 29.86in /  1011.1hPa North 4.9mph /  7.9km/h 9.0mph /  14.5km/h 15% 0.00in /  0mm 679.0 W/m2
13:13 82.8 °F /  28.2 °C 30.4 °F /  -0.9 °C 29.86in /  1011.1hPa North 2.9mph /  4.7km/h 6.0mph /  9.7km/h 15% 0.00in /  0mm 670.0 W/m2
13:19 82.9 °F /  28.3 °C 28.8 °F /  -1.8 °C 29.86in /  1011.1hPa WNW 2.0mph /  3.2km/h 10.0mph /  16.1km/h 14% 0.00in /  0mm 656.0 W/m2
13:25 83.3 °F /  28.5 °C 29.1 °F /  -1.6 °C 29.86in /  1011.1hPa North 8.1mph /  13km/h 8.1mph /  13km/h 14% 0.00in /  0mm 647.0 W/m2
13:32 83.5 °F /  28.6 °C 29.3 °F /  -1.5 °C 29.86in /  1011.1hPa NNW 4.9mph /  7.9km/h 11.0mph /  17.7km/h 14% 0.00in /  0mm 633.0 W/m2
13:38 83.5 °F /  28.6 °C 29.3 °F /  -1.5 °C 29.85in /  1010.7hPa WNW 2.0mph /  3.2km/h 7.0mph /  11.3km/h 14% 0.00in /  0mm 621.0 W/m2
13:44 83.7 °F /  28.7 °C 29.5 °F /  -1.4 °C 29.85in /  1010.7hPa NNE 4.0mph /  6.4km/h 8.0mph /  12.9km/h 14% 0.00in /  0mm 606.0 W/m2
13:50 83.7 °F /  28.7 °C 29.5 °F /  -1.4 °C 29.85in /  1010.7hPa NNW 2.9mph /  4.7km/h 10.0mph /  16.1km/h 14% 0.00in /  0mm 584.0 W/m2
13:56 83.8 °F /  28.8 °C 27.7 °F /  -2.4 °C 29.85in /  1010.7hPa NW 8.9mph /  14.3km/h 14.0mph /  22.5km/h 13% 0.00in /  0mm 580.0 W/m2
14:02 83.8 °F /  28.8 °C 27.7 °F /  -2.4 °C 29.84in /  1010.4hPa Calm   6.0mph /  9.7km/h 13% 0.00in /  0mm 564.0 W/m2
14:08 84.0 °F /  28.9 °C 27.9 °F /  -2.3 °C 29.84in /  1010.4hPa WNW 4.0mph /  6.4km/h 14.0mph /  22.5km/h 13% 0.00in /  0mm 547.0 W/m2
14:14 84.2 °F /  29 °C 28.0 °F /  -2.2 °C 29.84in /  1010.4hPa West 4.9mph /  7.9km/h 13.0mph /  20.9km/h 13% 0.00in /  0mm 529.0 W/m2
14:20 84.4 °F /  29.1 °C 28.2 °F /  -2.1 °C 29.84in /  1010.4hPa West 6.0mph /  9.7km/h 6.0mph /  9.7km/h 13% 0.00in /  0mm 513.0 W/m2
14:27 84.4 °F /  29.1 °C 28.2 °F /  -2.1 °C 29.84in /  1010.4hPa North 2.9mph /  4.7km/h 9.0mph /  14.5km/h 13% 0.00in /  0mm 510.0 W/m2
14:33 84.4 °F /  29.1 °C 28.2 °F /  -2.1 °C 29.84in /  1010.4hPa NNW 6.9mph /  11.1km/h 8.0mph /  12.9km/h 13% 0.00in /  0mm 483.0 W/m2
14:39 84.4 °F /  29.1 °C 26.2 °F /  -3.2 °C 29.84in /  1010.4hPa Calm   5.0mph /  8km/h 12% 0.00in /  0mm 473.0 W/m2
14:45 84.6 °F /  29.2 °C 26.4 °F /  -3.1 °C 29.83in /  1010hPa West 2.9mph /  4.7km/h 9.0mph /  14.5km/h 12% 0.00in /  0mm 468.0 W/m2
14:51 84.2 °F /  29 °C 26.1 °F /  -3.3 °C 29.84in /  1010.4hPa West 2.9mph /  4.7km/h 7.0mph /  11.3km/h 12% 0.00in /  0mm 436.0 W/m2
14:57 84.0 °F /  28.9 °C 25.9 °F /  -3.4 °C 29.84in /  1010.4hPa WNW 6.9mph /  11.1km/h 9.0mph /  14.5km/h 12% 0.00in /  0mm 420.0 W/m2
15:04 84.0 °F /  28.9 °C 25.9 °F /  -3.4 °C 29.84in /  1010.4hPa NNW 4.9mph /  7.9km/h 8.0mph /  12.9km/h 12% 0.00in /  0mm 404.0 W/m2
15:10 84.0 °F /  28.9 °C 23.9 °F /  -4.5 °C 29.83in /  1010hPa NNE 2.0mph /  3.2km/h 12.0mph /  19.3km/h 11% 0.00in /  0mm 381.0 W/m2
15:16 84.0 °F /  28.9 °C 25.9 °F /  -3.4 °C 29.83in /  1010hPa NW 4.0mph /  6.4km/h 7.0mph /  11.3km/h 12% 0.00in /  0mm 362.0 W/m2
15:22 84.0 °F /  28.9 °C 25.9 °F /  -3.4 °C 29.83in /  1010hPa North 0.9mph /  1.4km/h 8.0mph /  12.9km/h 12% 0.00in /  0mm 345.0 W/m2
15:28 83.8 °F /  28.8 °C 25.9 °F /  -3.4 °C 29.84in /  1010.4hPa NNW 0.9mph /  1.4km/h 7.0mph /  11.3km/h 12% 0.00in /  0mm 323.0 W/m2
15:34 83.7 °F /  28.7 °C 25.7 °F /  -3.5 °C 29.84in /  1010.4hPa NNW 2.9mph /  4.7km/h 5.0mph /  8km/h 12% 0.00in /  0mm 302.0 W/m2
15:40 83.7 °F /  28.7 °C 25.7 °F /  -3.5 °C 29.84in /  1010.4hPa NW 4.0mph /  6.4km/h 9.0mph /  14.5km/h 12% 0.00in /  0mm 281.0 W/m2
15:46 83.5 °F /  28.6 °C 25.5 °F /  -3.6 °C 29.84in /  1010.4hPa WNW 4.9mph /  7.9km/h 11.0mph /  17.7km/h 12% 0.00in /  0mm 257.0 W/m2
15:52 83.1 °F /  28.4 °C 25.3 °F /  -3.7 °C 29.84in /  1010.4hPa NNE 4.0mph /  6.4km/h 5.0mph /  8km/h 12% 0.00in /  0mm 241.0 W/m2
15:58 82.9 °F /  28.3 °C 27.0 °F /  -2.8 °C 29.84in /  1010.4hPa Calm   5.0mph /  8km/h 13% 0.00in /  0mm 225.0 W/m2
16:04 82.9 °F /  28.3 °C 27.0 °F /  -2.8 °C 29.84in /  1010.4hPa WNW 2.0mph /  3.2km/h 5.0mph /  8km/h 13% 0.00in /  0mm 206.0 W/m2
16:10 82.6 °F /  28.1 °C 24.8 °F /  -4 °C 29.84in /  1010.4hPa WNW 2.9mph /  4.7km/h 6.0mph /  9.7km/h 12% 0.00in /  0mm 190.0 W/m2
16:17 82.2 °F /  27.9 °C 24.6 °F /  -4.1 °C 29.84in /  1010.4hPa WSW 0.9mph /  1.4km/h 6.0mph /  9.7km/h 12% 0.00in /  0mm 79.0 W/m2
16:23 81.9 °F /  27.7 °C 24.3 °F /  -4.3 °C 29.84in /  1010.4hPa WNW 4.0mph /  6.4km/h 6.0mph /  9.7km/h 12% 0.00in /  0mm 90.0 W/m2
16:29 81.5 °F /  27.5 °C 24.1 °F /  -4.4 °C 29.84in /  1010.4hPa NNW 4.0mph /  6.4km/h 7.0mph /  11.3km/h 12% 0.00in /  0mm 91.0 W/m2
16:35 81.1 °F /  27.3 °C 25.7 °F /  -3.5 °C 29.85in /  1010.7hPa WSW 2.0mph /  3.2km/h 7.0mph /  11.3km/h 13% 0.00in /  0mm 90.0 W/m2
16:41 81.0 °F /  27.2 °C 25.5 °F /  -3.6 °C 29.85in /  1010.7hPa NW 4.9mph /  7.9km/h 7.0mph /  11.3km/h 13% 0.00in /  0mm 65.0 W/m2
16:47 80.6 °F /  27 °C 25.2 °F /  -3.8 °C 29.85in /  1010.7hPa WNW 4.9mph /  7.9km/h 9.0mph /  14.5km/h 13% 0.00in /  0mm 81.0 W/m2
16:53 80.2 °F /  26.8 °C 25.0 °F /  -3.9 °C 29.85in /  1010.7hPa West 6.0mph /  9.7km/h 10.0mph /  16.1km/h 13% 0.00in /  0mm 54.0 W/m2
16:59 79.9 °F /  26.6 °C 24.6 °F /  -4.1 °C 29.85in /  1010.7hPa NW 0.9mph /  1.4km/h 8.0mph /  12.9km/h 13% 0.00in /  0mm 44.0 W/m2
17:05 79.3 °F /  26.3 °C 24.3 °F /  -4.3 °C 29.86in /  1011.1hPa West 4.9mph /  7.9km/h 5.0mph /  8km/h 13% 0.00in /  0mm 35.0 W/m2
17:12 79.2 °F /  26.2 °C 24.1 °F /  -4.4 °C 29.85in /  1010.7hPa West 2.0mph /  3.2km/h 7.0mph /  11.3km/h 13% 0.00in /  0mm 28.0 W/m2
17:18 78.6 °F /  25.9 °C 23.7 °F /  -4.6 °C 29.86in /  1011.1hPa Calm   3.0mph /  4.8km/h 13% 0.00in /  0mm 21.0 W/m2
17:24 78.3 °F /  25.7 °C 23.4 °F /  -4.8 °C 29.86in /  1011.1hPa Calm   3.0mph /  4.8km/h 13% 0.00in /  0mm 16.0 W/m2
17:30 77.7 °F /  25.4 °C 23.0 °F /  -5 °C 29.86in /  1011.1hPa WSW 2.9mph /  4.7km/h 3.0mph /  4.8km/h 13% 0.00in /  0mm 11.0 W/m2
17:36 77.4 °F /  25.2 °C 24.4 °F /  -4.2 °C 29.86in /  1011.1hPa Calm   2.0mph /  3.2km/h 14% 0.00in /  0mm 5.0 W/m2
17:42 76.8 °F /  24.9 °C 24.1 °F /  -4.4 °C 29.86in /  1011.1hPa Calm     14% 0.00in /  0mm 0.0 W/m2
17:48 76.3 °F /  24.6 °C 23.5 °F /  -4.7 °C 29.86in /  1011.1hPa Calm     14% 0.00in /  0mm 0.0 W/m2
17:54 75.4 °F /  24.1 °C 24.4 °F /  -4.2 °C 29.86in /  1011.1hPa Calm     15% 0.00in /  0mm 0.0 W/m2
18:01 74.5 °F /  23.6 °C 25.3 °F /  -3.7 °C 29.86in /  1011.1hPa Calm     16% 0.00in /  0mm 0.0 W/m2
18:07 73.6 °F /  23.1 °C 24.6 °F /  -4.1 °C 29.87in /  1011.4hPa Calm     16% 0.00in /  0mm 0.0 W/m2
18:13 72.9 °F /  22.7 °C 24.1 °F /  -4.4 °C 29.87in /  1011.4hPa WSW 0.9mph /  1.4km/h 1.0mph /  1.6km/h 16% 0.00in /  0mm 0.0 W/m2
18:19 72.0 °F /  22.2 °C 24.8 °F /  -4 °C 29.87in /  1011.4hPa Calm     17% 0.00in /  0mm 0.0 W/m2
18:25 71.2 °F /  21.8 °C 25.5 °F /  -3.6 °C 29.87in /  1011.4hPa Calm   1.0mph /  1.6km/h 18% 0.00in /  0mm 0.0 W/m2
18:31 70.3 °F /  21.3 °C 24.8 °F /  -4 °C 29.88in /  1011.7hPa Calm     18% 0.00in /  0mm 0.0 W/m2
18:37 69.6 °F /  20.9 °C 24.3 °F /  -4.3 °C 29.88in /  1011.7hPa Calm     18% 0.00in /  0mm 0.0 W/m2
18:43 69.1 °F /  20.6 °C 25.2 °F /  -3.8 °C 29.88in /  1011.7hPa SE 0.9mph /  1.4km/h 1.0mph /  1.6km/h 19% 0.00in /  0mm 0.0 W/m2
18:50 68.5 °F /  20.3 °C 24.6 °F /  -4.1 °C 29.88in /  1011.7hPa Calm     19% 0.00in /  0mm 0.0 W/m2
18:56 68.4 °F /  20.2 °C 24.4 °F /  -4.2 °C 29.89in /  1012.1hPa Calm     19% 0.00in /  0mm 0.0 W/m2
19:02 68.0 °F /  20 °C 25.3 °F /  -3.7 °C 29.89in /  1012.1hPa SW 0.9mph /  1.4km/h 1.0mph /  1.6km/h 20% 0.00in /  0mm 0.0 W/m2
19:08 67.6 °F /  19.8 °C 25.2 °F /  -3.8 °C 29.89in /  1012.1hPa Calm     20% 0.00in /  0mm 0.0 W/m2
19:14 67.5 °F /  19.7 °C 25.0 °F /  -3.9 °C 29.89in /  1012.1hPa Calm   1.0mph /  1.6km/h 20% 0.00in /  0mm 0.0 W/m2
19:20 67.3 °F /  19.6 °C 24.8 °F /  -4 °C 29.90in /  1012.4hPa Calm   1.0mph /  1.6km/h 20% 0.00in /  0mm 0.0 W/m2
19:26 66.9 °F /  19.4 °C 24.6 °F /  -4.1 °C 29.90in /  1012.4hPa Calm   1.0mph /  1.6km/h 20% 0.00in /  0mm 0.0 W/m2
19:33 66.6 °F /  19.2 °C 25.3 °F /  -3.7 °C 29.90in /  1012.4hPa Calm     21% 0.00in /  0mm 0.0 W/m2
19:39 66.0 °F /  18.9 °C 25.0 °F /  -3.9 °C 29.91in /  1012.8hPa Calm   1.0mph /  1.6km/h 21% 0.00in /  0mm 0.0 W/m2
19:45 65.7 °F /  18.7 °C 24.6 °F /  -4.1 °C 29.91in /  1012.8hPa West 0.9mph /  1.4km/h 1.0mph /  1.6km/h 21% 0.00in /  0mm 0.0 W/m2
19:51 65.8 °F /  18.8 °C 24.8 °F /  -4 °C 29.91in /  1012.8hPa WSW 0.9mph /  1.4km/h 5.0mph /  8km/h 21% 0.00in /  0mm 0.0 W/m2
19:57 66.4 °F /  19.1 °C 24.1 °F /  -4.4 °C 29.91in /  1012.8hPa West 2.0mph /  3.2km/h 2.0mph /  3.2km/h 20% 0.00in /  0mm 0.0 W/m2
20:09 67.5 °F /  19.7 °C 23.7 °F /  -4.6 °C 29.91in /  1012.8hPa WSW 0.9mph /  1.4km/h 3.0mph /  4.8km/h 19% 0.00in /  0mm 0.0 W/m2
20:15 67.6 °F /  19.8 °C 23.9 °F /  -4.5 °C 29.91in /  1012.8hPa Calm   2.0mph /  3.2km/h 19% 0.00in /  0mm 0.0 W/m2
20:22 67.6 °F /  19.8 °C 23.9 °F /  -4.5 °C 29.92in /  1013.1hPa Calm   1.0mph /  1.6km/h 19% 0.00in /  0mm 0.0 W/m2
20:28 67.5 °F /  19.7 °C 23.7 °F /  -4.6 °C 29.93in /  1013.4hPa Calm     19% 0.00in /  0mm 0.0 W/m2
20:34 67.3 °F /  19.6 °C 23.5 °F /  -4.7 °C 29.93in /  1013.4hPa Calm   1.0mph /  1.6km/h 19% 0.00in /  0mm 0.0 W/m2
20:40 66.6 °F /  19.2 °C 24.3 °F /  -4.3 °C 29.93in /  1013.4hPa SSE 0.9mph /  1.4km/h 1.0mph /  1.6km/h 20% 0.00in /  0mm 0.0 W/m2
20:46 65.8 °F /  18.8 °C 23.7 °F /  -4.6 °C 29.93in /  1013.4hPa Calm     20% 0.00in /  0mm 0.0 W/m2
20:52 65.1 °F /  18.4 °C 24.3 °F /  -4.3 °C 29.93in /  1013.4hPa Calm     21% 0.00in /  0mm 0.0 W/m2
20:58 64.4 °F /  18 °C 23.5 °F /  -4.7 °C 29.93in /  1013.4hPa ENE 0.9mph /  1.4km/h 2.0mph /  3.2km/h 21% 0.00in /  0mm 0.0 W/m2
21:04 63.7 °F /  17.6 °C 24.1 °F /  -4.4 °C 29.93in /  1013.4hPa ENE 0.9mph /  1.4km/h 2.0mph /  3.2km/h 22% 0.00in /  0mm 0.0 W/m2
21:10 63.0 °F /  17.2 °C 23.5 °F /  -4.7 °C 29.93in /  1013.4hPa Calm     22% 0.00in /  0mm 0.0 W/m2
21:17 62.6 °F /  17 °C 24.3 °F /  -4.3 °C 29.93in /  1013.4hPa Calm   1.0mph /  1.6km/h 23% 0.00in /  0mm 0.0 W/m2
21:23 61.9 °F /  16.6 °C 23.7 °F /  -4.6 °C 29.93in /  1013.4hPa Calm   1.0mph /  1.6km/h 23% 0.00in /  0mm 0.0 W/m2
21:29 61.2 °F /  16.2 °C 23.0 °F /  -5 °C 29.94in /  1013.8hPa SE 0.9mph /  1.4km/h 2.0mph /  3.2km/h 23% 0.00in /  0mm 0.0 W/m2
21:35 60.6 °F /  15.9 °C 23.5 °F /  -4.7 °C 29.94in /  1013.8hPa Calm     24% 0.00in /  0mm 0.0 W/m2
21:47 59.9 °F /  15.5 °C 23.9 °F /  -4.5 °C 29.94in /  1013.8hPa Calm     25% 0.00in /  0mm 0.0 W/m2
21:53 59.5 °F /  15.3 °C 23.7 °F /  -4.6 °C 29.94in /  1013.8hPa Calm     25% 0.00in /  0mm 0.0 W/m2
21:59 59.2 °F /  15.1 °C 23.4 °F /  -4.8 °C 29.94in /  1013.8hPa Calm   1.0mph /  1.6km/h 25% 0.00in /  0mm 0.0 W/m2
22:06 58.8 °F /  14.9 °C 23.0 °F /  -5 °C 29.94in /  1013.8hPa Calm     25% 0.00in /  0mm 0.0 W/m2
22:12 58.6 °F /  14.8 °C 22.8 °F /  -5.1 °C 29.94in /  1013.8hPa Calm   1.0mph /  1.6km/h 25% 0.00in /  0mm 0.0 W/m2
22:18 58.6 °F /  14.8 °C 22.8 °F /  -5.1 °C 29.94in /  1013.8hPa Calm   1.0mph /  1.6km/h 25% 0.00in /  0mm 0.0 W/m2
22:24 58.5 °F /  14.7 °C 22.8 °F /  -5.1 °C 29.94in /  1013.8hPa Calm   1.0mph /  1.6km/h 25% 0.00in /  0mm 0.0 W/m2
22:30 58.3 °F /  14.6 °C 23.5 °F /  -4.7 °C 29.94in /  1013.8hPa Calm     26% 0.00in /  0mm 0.0 W/m2
22:36 57.7 °F /  14.3 °C 23.0 °F /  -5 °C 29.95in /  1014.1hPa Calm   1.0mph /  1.6km/h 26% 0.00in /  0mm 0.0 W/m2
22:42 57.6 °F /  14.2 °C 23.0 °F /  -5 °C 29.95in /  1014.1hPa Calm     26% 0.00in /  0mm 0.0 W/m2
22:49 57.4 °F /  14.1 °C 22.8 °F /  -5.1 °C 29.94in /  1013.8hPa Calm     26% 0.00in /  0mm 0.0 W/m2
22:55 57.0 °F /  13.9 °C 23.4 °F /  -4.8 °C 29.94in /  1013.8hPa Calm     27% 0.00in /  0mm 0.0 W/m2
23:01 56.7 °F /  13.7 °C 23.0 °F /  -5 °C 29.93in /  1013.4hPa Calm     27% 0.00in /  0mm 0.0 W/m2
23:07 56.5 °F /  13.6 °C 22.8 °F /  -5.1 °C 29.93in /  1013.4hPa Calm     27% 0.00in /  0mm 0.0 W/m2
23:13 56.1 °F /  13.4 °C 22.6 °F /  -5.2 °C 29.93in /  1013.4hPa Calm     27% 0.00in /  0mm 0.0 W/m2
23:19 55.9 °F /  13.3 °C 22.5 °F /  -5.3 °C 29.93in /  1013.4hPa Calm   1.0mph /  1.6km/h 27% 0.00in /  0mm 0.0 W/m2
23:25 55.9 °F /  13.3 °C 22.5 °F /  -5.3 °C 29.93in /  1013.4hPa ENE 0.9mph /  1.4km/h 3.0mph /  4.8km/h 27% 0.00in /  0mm 0.0 W/m2
23:31 55.9 °F /  13.3 °C 22.5 °F /  -5.3 °C 29.93in /  1013.4hPa East 2.9mph /  4.7km/h 3.0mph /  4.8km/h 27% 0.00in /  0mm 0.0 W/m2
23:37 55.9 °F /  13.3 °C 22.5 °F /  -5.3 °C 29.93in /  1013.4hPa East 0.9mph /  1.4km/h 3.0mph /  4.8km/h 27% 0.00in /  0mm 0.0 W/m2
23:43 56.1 °F /  13.4 °C 22.6 °F /  -5.2 °C 29.93in /  1013.4hPa Calm   2.0mph /  3.2km/h 27% 0.00in /  0mm 0.0 W/m2
23:49 56.1 °F /  13.4 °C 22.6 °F /  -5.2 °C 29.93in /  1013.4hPa Calm   2.0mph /  3.2km/h 27% 0.00in /  0mm 0.0 W/m2
23:55 56.1 °F /  13.4 °C 22.6 °F /  -5.2 °C 29.93in /  1013.4hPa Calm   4.0mph /  6.4km/h 27% 0.00in /  0mm 0.0 W/m2
Olympia, Windhoek, Namibia
Compliments of Weather Underground - 3 mb